EWG225 EDDM-EDDF
Flight info
| Callsign | EWG225 |
|---|---|
| Flight time | 0h 38m |
| Altitude | 24000 |
| Route | GIVMI6Q GIVMI Y101 ERNAS T161 DEBHI DEBHI1B |
| Aircraft | A21N/M-SDE2E3FGHIJ1RWXY/LB1 |
Departure
| Time | 2026-05-04 16:22 |
|---|---|
| Airport | Munich Airport (EDDM) |
Arrival
| Time | 2026-05-04 17:00 |
|---|---|
| Airport | Frankfurt Main Airport (EDDF) |
| Time | Latitude | Longitude | Altitude | Speed | Heading |
|---|---|---|---|---|---|
| 2026-05-04 15:37 | 48.35099 | 11.79375 | 1491 ft | 0 kts | 263° |
| 2026-05-04 16:07 | 48.35103 | 11.79418 | 1491 ft | 4 kts | 263° |
| 2026-05-04 16:08 | 48.35106 | 11.79458 | 1491 ft | 4 kts | 263° |
| 2026-05-04 16:08 | 48.35074 | 11.79520 | 1479 ft | 1 kts | 352° |
| 2026-05-04 16:09 | 48.35071 | 11.79520 | 1491 ft | 0 kts | 352° |
| 2026-05-04 16:13 | 48.35075 | 11.79520 | 1491 ft | 2 kts | 352° |
| 2026-05-04 16:14 | 48.35148 | 11.79507 | 1486 ft | 9 kts | 353° |
| 2026-05-04 16:14 | 48.35312 | 11.79476 | 1485 ft | 15 kts | 358° |
| 2026-05-04 16:15 | 48.35671 | 11.79416 | 1478 ft | 19 kts | 353° |
| 2026-05-04 16:16 | 48.35941 | 11.79345 | 1491 ft | 18 kts | 341° |
| 2026-05-04 16:16 | 48.36076 | 11.79081 | 1491 ft | 14 kts | 264° |
| 2026-05-04 16:17 | 48.36047 | 11.78758 | 1491 ft | 17 kts | 261° |
| 2026-05-04 16:18 | 48.36010 | 11.78225 | 1491 ft | 18 kts | 264° |
| 2026-05-04 16:18 | 48.35996 | 11.78030 | 1491 ft | 19 kts | 263° |
| 2026-05-04 16:19 | 48.36059 | 11.77655 | 1488 ft | 14 kts | 357° |
| 2026-05-04 16:19 | 48.36217 | 11.77849 | 1487 ft | 17 kts | 59° |
| 2026-05-04 16:20 | 48.36229 | 11.77878 | 1491 ft | 0 kts | 54° |
| 2026-05-04 16:20 | 48.36263 | 11.77937 | 1484 ft | 7 kts | 49° |
| 2026-05-04 16:21 | 48.36460 | 11.79185 | 1491 ft | 111 kts | 83° |
| 2026-05-04 16:22 | 48.36656 | 11.82240 | 1936 ft | 155 kts | 86° |
| 2026-05-04 16:22 | 48.37799 | 11.87208 | 2983 ft | 199 kts | 31° |
| 2026-05-04 16:23 | 48.42242 | 11.85925 | 4378 ft | 260 kts | 319° |
| 2026-05-04 16:24 | 48.47166 | 11.77210 | 7577 ft | 281 kts | 309° |
| 2026-05-04 16:25 | 48.49725 | 11.72653 | 9359 ft | 288 kts | 308° |
| 2026-05-04 16:26 | 48.55053 | 11.63227 | 12596 ft | 305 kts | 307° |
| 2026-05-04 16:26 | 48.59334 | 11.55636 | 14349 ft | 340 kts | 307° |
| 2026-05-04 16:27 | 48.62576 | 11.49880 | 14883 ft | 378 kts | 308° |
| 2026-05-04 16:28 | 48.67880 | 11.40456 | 16422 ft | 398 kts | 307° |
| 2026-05-04 16:28 | 48.74270 | 11.32193 | 18268 ft | 411 kts | 324° |
| 2026-05-04 16:29 | 48.83880 | 11.22496 | 20321 ft | 420 kts | 321° |
| 2026-05-04 16:30 | 48.90447 | 11.13633 | 21850 ft | 424 kts | 314° |
| 2026-05-04 16:31 | 48.94829 | 11.07509 | 22880 ft | 430 kts | 314° |
| 2026-05-04 16:31 | 49.01505 | 10.98157 | 23953 ft | 435 kts | 314° |
| 2026-05-04 16:32 | 49.08159 | 10.88792 | 23973 ft | 433 kts | 314° |
| 2026-05-04 16:33 | 49.12551 | 10.82589 | 23980 ft | 433 kts | 314° |
| 2026-05-04 16:33 | 49.16978 | 10.76319 | 23982 ft | 433 kts | 314° |
| 2026-05-04 16:34 | 49.21306 | 10.69925 | 23981 ft | 432 kts | 311° |
| 2026-05-04 16:34 | 49.23401 | 10.66632 | 23987 ft | 434 kts | 310° |
| 2026-05-04 16:35 | 49.29642 | 10.56793 | 23470 ft | 421 kts | 310° |
| 2026-05-04 16:35 | 49.35700 | 10.47152 | 22636 ft | 415 kts | 308° |
| 2026-05-04 16:36 | 49.37452 | 10.43659 | 22342 ft | 411 kts | 302° |
| 2026-05-04 16:36 | 49.40714 | 10.36505 | 21815 ft | 407 kts | 301° |
| 2026-05-04 16:37 | 49.43949 | 10.29384 | 21322 ft | 405 kts | 301° |
| 2026-05-04 16:37 | 49.45539 | 10.25883 | 21064 ft | 405 kts | 301° |
| 2026-05-04 16:37 | 49.48754 | 10.18805 | 20571 ft | 402 kts | 301° |
| 2026-05-04 16:38 | 49.51928 | 10.11800 | 19975 ft | 392 kts | 301° |
| 2026-05-04 16:39 | 49.57504 | 10.02888 | 18972 ft | 403 kts | 331° |
| 2026-05-04 16:39 | 49.63008 | 10.01183 | 18486 ft | 411 kts | 1° |
| 2026-05-04 16:40 | 49.68409 | 10.03909 | 17984 ft | 414 kts | 32° |
| 2026-05-04 16:40 | 49.72528 | 10.10029 | 17455 ft | 411 kts | 56° |
| 2026-05-04 16:41 | 49.74302 | 10.18218 | 16923 ft | 401 kts | 90° |
| 2026-05-04 16:41 | 49.71495 | 10.29695 | 16603 ft | 383 kts | 136° |
| 2026-05-04 16:42 | 49.64619 | 10.35008 | 16329 ft | 367 kts | 178° |
| 2026-05-04 16:43 | 49.59767 | 10.33318 | 15847 ft | 359 kts | 210° |
| 2026-05-04 16:43 | 49.56317 | 10.27951 | 15366 ft | 357 kts | 240° |
| 2026-05-04 16:43 | 49.55437 | 10.24379 | 15117 ft | 358 kts | 256° |
| 2026-05-04 16:44 | 49.58165 | 10.09911 | 14169 ft | 365 kts | 298° |
| 2026-05-04 16:45 | 49.60775 | 10.03206 | 13839 ft | 364 kts | 297° |
| 2026-05-04 16:46 | 49.64576 | 9.93165 | 13385 ft | 361 kts | 297° |
| 2026-05-04 16:46 | 49.67095 | 9.86445 | 12969 ft | 361 kts | 297° |
| 2026-05-04 16:47 | 49.69604 | 9.79745 | 12461 ft | 359 kts | 297° |
| 2026-05-04 16:47 | 49.72090 | 9.73080 | 11953 ft | 356 kts | 297° |
| 2026-05-04 16:48 | 49.75360 | 9.64255 | 11277 ft | 353 kts | 297° |
| 2026-05-04 16:48 | 49.76575 | 9.60977 | 11008 ft | 352 kts | 297° |
| 2026-05-04 16:49 | 49.79008 | 9.54409 | 10959 ft | 352 kts | 297° |
| 2026-05-04 16:49 | 49.81450 | 9.47826 | 10976 ft | 354 kts | 297° |
| 2026-05-04 16:50 | 49.83904 | 9.41209 | 10997 ft | 354 kts | 297° |
| 2026-05-04 16:50 | 49.86273 | 9.34837 | 10971 ft | 332 kts | 297° |
| 2026-05-04 16:51 | 49.88581 | 9.28692 | 10988 ft | 332 kts | 300° |
| 2026-05-04 16:51 | 49.90034 | 9.25899 | 10980 ft | 336 kts | 315° |
| 2026-05-04 16:51 | 49.94045 | 9.22383 | 10890 ft | 320 kts | 333° |
| 2026-05-04 16:52 | 49.97988 | 9.19644 | 9888 ft | 310 kts | 334° |
| 2026-05-04 16:52 | 49.99985 | 9.18263 | 8869 ft | 318 kts | 334° |
| 2026-05-04 16:53 | 50.04140 | 9.15349 | 7409 ft | 328 kts | 334° |
| 2026-05-04 16:53 | 50.10226 | 9.11049 | 5375 ft | 315 kts | 333° |
| 2026-05-04 16:54 | 50.12075 | 9.09313 | 4719 ft | 307 kts | 316° |
| 2026-05-04 16:55 | 50.13299 | 8.98334 | 3477 ft | 258 kts | 244° |
| 2026-05-04 16:55 | 50.11818 | 8.93534 | 3699 ft | 234 kts | 256° |
| 2026-05-04 16:56 | 50.11014 | 8.88593 | 3990 ft | 234 kts | 253° |
| 2026-05-04 16:56 | 50.09432 | 8.81453 | 3430 ft | 234 kts | 250° |
| 2026-05-04 16:57 | 50.08869 | 8.79076 | 3122 ft | 235 kts | 250° |
| 2026-05-04 16:57 | 50.07733 | 8.74305 | 2477 ft | 232 kts | 251° |
| 2026-05-04 16:58 | 50.06170 | 8.67737 | 1659 ft | 194 kts | 251° |
| 2026-05-04 16:58 | 50.05726 | 8.65874 | 1405 ft | 175 kts | 251° |
| 2026-05-04 16:59 | 50.04992 | 8.62797 | 881 ft | 135 kts | 252° |
| 2026-05-04 17:00 | 50.03713 | 8.57392 | 368 ft | 97 kts | 249° |
| 2026-05-04 17:00 | 50.03438 | 8.56064 | 354 ft | 26 kts | 276° |
| 2026-05-04 17:01 | 50.03477 | 8.55668 | 358 ft | 20 kts | 279° |
| 2026-05-04 17:01 | 50.03454 | 8.55318 | 354 ft | 18 kts | 251° |
| 2026-05-04 17:02 | 50.03360 | 8.54925 | 347 ft | 21 kts | 252° |
| 2026-05-04 17:02 | 50.03280 | 8.54589 | 351 ft | 7 kts | 251° |
| 2026-05-04 17:03 | 50.03291 | 8.54501 | 351 ft | 10 kts | 317° |
| 2026-05-04 17:03 | 50.03362 | 8.54451 | 351 ft | 13 kts | 337° |
| 2026-05-04 17:03 | 50.03558 | 8.54338 | 351 ft | 15 kts | 339° |
| 2026-05-04 17:04 | 50.03597 | 8.54315 | 347 ft | 0 kts | 341° |
| 2026-05-04 17:04 | 50.03600 | 8.54313 | 347 ft | 2 kts | 341° |
| 2026-05-04 17:05 | 50.03658 | 8.54335 | 352 ft | 7 kts | 48° |
| 2026-05-04 17:05 | 50.03716 | 8.54537 | 357 ft | 13 kts | 67° |
| 2026-05-04 17:06 | 50.03794 | 8.54854 | 353 ft | 18 kts | 64° |
| 2026-05-04 17:06 | 50.03850 | 8.55039 | 354 ft | 20 kts | 65° |
| 2026-05-04 17:07 | 50.03918 | 8.55407 | 356 ft | 19 kts | 70° |
| 2026-05-04 17:07 | 50.03950 | 8.55539 | 354 ft | 20 kts | 69° |
| 2026-05-04 17:07 | 50.04019 | 8.55827 | 357 ft | 22 kts | 69° |
| 2026-05-04 17:07 | 50.04075 | 8.56060 | 361 ft | 20 kts | 69° |
| 2026-05-04 17:08 | 50.04125 | 8.56270 | 361 ft | 21 kts | 69° |
| 2026-05-04 17:08 | 50.04229 | 8.56702 | 364 ft | 18 kts | 70° |
| 2026-05-04 17:08 | 50.04279 | 8.56798 | 365 ft | 5 kts | 17° |
| 2026-05-04 17:09 | 50.04323 | 8.56816 | 370 ft | 8 kts | 12° |
| 2026-05-04 17:09 | 50.04384 | 8.56834 | 365 ft | 10 kts | 11° |
| 2026-05-04 17:09 | 50.04458 | 8.56856 | 369 ft | 12 kts | 13° |
| 2026-05-04 17:10 | 50.04635 | 8.56923 | 361 ft | 14 kts | 18° |
| 2026-05-04 17:10 | 50.04842 | 8.57080 | 362 ft | 8 kts | 67° |
| 2026-05-04 17:11 | 50.04825 | 8.57147 | 365 ft | 3 kts | 125° |
| 2026-05-04 17:11 | 50.04813 | 8.57183 | 361 ft | 4 kts | 114° |